sensor_id;sensor_type;location;lat;lon;timestamp;P1;durP1;ratioP1;P2;durP2;ratioP2
9547;SDS011;4812;51.992;8.648;2022-08-24T00:00:37;14.53;;;13.63;;
9547;SDS011;4812;51.992;8.648;2022-08-24T00:03:05;14.50;;;13.70;;
9547;SDS011;4812;51.992;8.648;2022-08-24T00:05:37;15.07;;;14.07;;
9547;SDS011;4812;51.992;8.648;2022-08-24T00:08:04;15.00;;;13.90;;
9547;SDS011;4812;51.992;8.648;2022-08-24T00:10:32;15.50;;;14.40;;
9547;SDS011;4812;51.992;8.648;2022-08-24T00:13:01;14.60;;;13.80;;
9547;SDS011;4812;51.992;8.648;2022-08-24T00:15:29;14.47;;;13.57;;
9547;SDS011;4812;51.992;8.648;2022-08-24T00:17:56;14.03;;;13.23;;
9547;SDS011;4812;51.992;8.648;2022-08-24T00:20:24;14.53;;;13.53;;
9547;SDS011;4812;51.992;8.648;2022-08-24T00:22:52;14.60;;;13.67;;
9547;SDS011;4812;51.992;8.648;2022-08-24T00:25:20;14.87;;;13.87;;
9547;SDS011;4812;51.992;8.648;2022-08-24T00:27:48;14.13;;;13.23;;
9547;SDS011;4812;51.992;8.648;2022-08-24T00:30:18;15.17;;;14.00;;
9547;SDS011;4812;51.992;8.648;2022-08-24T00:32:46;14.60;;;13.70;;
9547;SDS011;4812;51.992;8.648;2022-08-24T00:35:15;14.87;;;13.83;;
9547;SDS011;4812;51.992;8.648;2022-08-24T00:37:43;14.70;;;13.80;;
9547;SDS011;4812;51.992;8.648;2022-08-24T00:40:13;14.80;;;13.90;;
9547;SDS011;4812;51.992;8.648;2022-08-24T00:42:43;14.23;;;13.37;;
9547;SDS011;4812;51.992;8.648;2022-08-24T00:45:12;14.40;;;13.40;;
9547;SDS011;4812;51.992;8.648;2022-08-24T00:47:43;14.73;;;13.83;;
9547;SDS011;4812;51.992;8.648;2022-08-24T00:50:15;14.60;;;13.70;;
9547;SDS011;4812;51.992;8.648;2022-08-24T00:52:46;15.00;;;14.00;;
9547;SDS011;4812;51.992;8.648;2022-08-24T00:55:16;15.23;;;14.13;;
9547;SDS011;4812;51.992;8.648;2022-08-24T00:57:47;14.73;;;13.63;;
9547;SDS011;4812;51.992;8.648;2022-08-24T01:00:18;14.37;;;13.57;;
9547;SDS011;4812;51.992;8.648;2022-08-24T01:02:52;14.83;;;13.73;;
9547;SDS011;4812;51.992;8.648;2022-08-24T01:05:22;15.30;;;14.30;;
9547;SDS011;4812;51.992;8.648;2022-08-24T01:07:50;15.07;;;14.07;;
9547;SDS011;4812;51.992;8.648;2022-08-24T01:10:19;14.33;;;13.43;;
9547;SDS011;4812;51.992;8.648;2022-08-24T01:12:48;14.20;;;13.30;;
9547;SDS011;4812;51.992;8.648;2022-08-24T01:15:26;14.73;;;13.67;;
9547;SDS011;4812;51.992;8.648;2022-08-24T01:17:56;14.37;;;13.47;;
9547;SDS011;4812;51.992;8.648;2022-08-24T01:20:51;14.80;;;13.67;;
9547;SDS011;4812;51.992;8.648;2022-08-24T01:23:28;13.73;;;13.00;;
9547;SDS011;4812;51.992;8.648;2022-08-24T01:26:02;14.83;;;13.83;;
9547;SDS011;4812;51.992;8.648;2022-08-24T01:28:31;14.90;;;14.00;;
9547;SDS011;4812;51.992;8.648;2022-08-24T01:31:05;14.93;;;13.63;;
9547;SDS011;4812;51.992;8.648;2022-08-24T01:33:35;15.33;;;14.10;;
9547;SDS011;4812;51.992;8.648;2022-08-24T01:36:07;14.73;;;13.83;;
9547;SDS011;4812;51.992;8.648;2022-08-24T01:38:39;14.53;;;13.73;;
9547;SDS011;4812;51.992;8.648;2022-08-24T01:41:06;14.87;;;13.57;;
9547;SDS011;4812;51.992;8.648;2022-08-24T01:43:37;14.50;;;13.50;;
9547;SDS011;4812;51.992;8.648;2022-08-24T01:46:06;13.73;;;12.93;;
9547;SDS011;4812;51.992;8.648;2022-08-24T01:48:37;14.20;;;13.20;;
9547;SDS011;4812;51.992;8.648;2022-08-24T01:51:05;14.20;;;13.30;;
9547;SDS011;4812;51.992;8.648;2022-08-24T01:53:32;14.83;;;13.70;;
9547;SDS011;4812;51.992;8.648;2022-08-24T01:56:01;14.17;;;13.37;;
9547;SDS011;4812;51.992;8.648;2022-08-24T01:58:30;15.27;;;14.27;;
9547;SDS011;4812;51.992;8.648;2022-08-24T02:00:58;14.03;;;13.13;;
9547;SDS011;4812;51.992;8.648;2022-08-24T02:03:26;14.80;;;13.70;;
9547;SDS011;4812;51.992;8.648;2022-08-24T02:05:56;14.90;;;13.90;;
9547;SDS011;4812;51.992;8.648;2022-08-24T02:08:25;15.77;;;13.97;;
9547;SDS011;4812;51.992;8.648;2022-08-24T02:10:53;14.60;;;13.50;;
9547;SDS011;4812;51.992;8.648;2022-08-24T02:13:23;14.13;;;13.20;;
9547;SDS011;4812;51.992;8.648;2022-08-24T02:15:53;14.30;;;13.40;;
9547;SDS011;4812;51.992;8.648;2022-08-24T02:18:22;13.90;;;12.90;;
9547;SDS011;4812;51.992;8.648;2022-08-24T02:20:50;14.40;;;13.40;;
9547;SDS011;4812;51.992;8.648;2022-08-24T02:23:19;14.70;;;13.60;;
9547;SDS011;4812;51.992;8.648;2022-08-24T02:25:47;14.40;;;13.50;;
9547;SDS011;4812;51.992;8.648;2022-08-24T02:28:15;14.20;;;13.20;;
9547;SDS011;4812;51.992;8.648;2022-08-24T02:30:45;14.00;;;13.10;;
9547;SDS011;4812;51.992;8.648;2022-08-24T02:33:12;14.17;;;13.27;;
9547;SDS011;4812;51.992;8.648;2022-08-24T02:35:40;14.20;;;13.20;;
9547;SDS011;4812;51.992;8.648;2022-08-24T02:38:08;15.13;;;14.10;;
9547;SDS011;4812;51.992;8.648;2022-08-24T02:40:37;14.80;;;13.73;;
9547;SDS011;4812;51.992;8.648;2022-08-24T02:43:05;14.47;;;13.47;;
9547;SDS011;4812;51.992;8.648;2022-08-24T02:45:36;14.60;;;13.70;;
9547;SDS011;4812;51.992;8.648;2022-08-24T02:48:06;15.13;;;14.07;;
9547;SDS011;4812;51.992;8.648;2022-08-24T02:53:29;15.47;;;14.23;;
9547;SDS011;4812;51.992;8.648;2022-08-24T02:55:58;14.87;;;13.97;;
9547;SDS011;4812;51.992;8.648;2022-08-24T02:58:25;15.00;;;13.70;;
9547;SDS011;4812;51.992;8.648;2022-08-24T03:00:53;15.30;;;14.20;;
9547;SDS011;4812;51.992;8.648;2022-08-24T03:03:22;14.53;;;13.63;;
9547;SDS011;4812;51.992;8.648;2022-08-24T03:05:49;14.93;;;13.93;;
9547;SDS011;4812;51.992;8.648;2022-08-24T03:08:20;15.80;;;14.43;;
9547;SDS011;4812;51.992;8.648;2022-08-24T03:10:47;14.93;;;13.93;;
9547;SDS011;4812;51.992;8.648;2022-08-24T03:13:16;14.80;;;13.80;;
9547;SDS011;4812;51.992;8.648;2022-08-24T03:15:44;15.20;;;14.00;;
9547;SDS011;4812;51.992;8.648;2022-08-24T03:18:12;15.23;;;14.23;;
9547;SDS011;4812;51.992;8.648;2022-08-24T03:20:41;14.90;;;14.00;;
9547;SDS011;4812;51.992;8.648;2022-08-24T03:23:10;15.27;;;13.90;;
9547;SDS011;4812;51.992;8.648;2022-08-24T03:25:37;15.03;;;14.13;;
9547;SDS011;4812;51.992;8.648;2022-08-24T03:28:05;15.37;;;14.37;;
9547;SDS011;4812;51.992;8.648;2022-08-24T03:30:36;15.73;;;14.63;;
9547;SDS011;4812;51.992;8.648;2022-08-24T03:33:07;14.40;;;13.50;;
9547;SDS011;4812;51.992;8.648;2022-08-24T03:35:37;15.30;;;14.07;;
9547;SDS011;4812;51.992;8.648;2022-08-24T03:38:06;15.73;;;14.37;;
9547;SDS011;4812;51.992;8.648;2022-08-24T03:40:34;14.57;;;13.67;;
9547;SDS011;4812;51.992;8.648;2022-08-24T03:43:02;14.30;;;13.40;;
9547;SDS011;4812;51.992;8.648;2022-08-24T03:45:30;15.40;;;14.30;;
9547;SDS011;4812;51.992;8.648;2022-08-24T03:47:59;15.57;;;14.47;;
9547;SDS011;4812;51.992;8.648;2022-08-24T03:50:28;14.43;;;13.33;;
9547;SDS011;4812;51.992;8.648;2022-08-24T03:52:56;14.57;;;13.67;;
9547;SDS011;4812;51.992;8.648;2022-08-24T03:55:26;14.47;;;13.47;;
9547;SDS011;4812;51.992;8.648;2022-08-24T03:57:55;14.90;;;13.57;;
9547;SDS011;4812;51.992;8.648;2022-08-24T04:00:22;13.80;;;12.97;;
9547;SDS011;4812;51.992;8.648;2022-08-24T04:02:55;15.13;;;13.80;;
9547;SDS011;4812;51.992;8.648;2022-08-24T04:05:24;15.10;;;13.90;;
9547;SDS011;4812;51.992;8.648;2022-08-24T04:07:52;15.20;;;13.97;;
9547;SDS011;4812;51.992;8.648;2022-08-24T04:10:21;14.73;;;13.73;;
9547;SDS011;4812;51.992;8.648;2022-08-24T04:12:50;14.40;;;13.50;;
9547;SDS011;4812;51.992;8.648;2022-08-24T04:15:20;14.37;;;13.27;;
9547;SDS011;4812;51.992;8.648;2022-08-24T04:17:49;14.33;;;13.43;;
9547;SDS011;4812;51.992;8.648;2022-08-24T04:20:17;14.70;;;13.40;;
9547;SDS011;4812;51.992;8.648;2022-08-24T04:22:45;14.90;;;13.63;;
9547;SDS011;4812;51.992;8.648;2022-08-24T04:25:12;14.70;;;13.70;;
9547;SDS011;4812;51.992;8.648;2022-08-24T04:27:40;14.80;;;13.80;;
9547;SDS011;4812;51.992;8.648;2022-08-24T04:30:10;15.00;;;14.00;;
9547;SDS011;4812;51.992;8.648;2022-08-24T04:33:00;14.80;;;13.80;;
9547;SDS011;4812;51.992;8.648;2022-08-24T04:35:28;14.70;;;13.80;;
9547;SDS011;4812;51.992;8.648;2022-08-24T04:37:55;15.17;;;14.07;;
9547;SDS011;4812;51.992;8.648;2022-08-24T04:40:23;15.60;;;14.60;;
9547;SDS011;4812;51.992;8.648;2022-08-24T04:42:51;14.83;;;13.83;;
9547;SDS011;4812;51.992;8.648;2022-08-24T04:45:20;15.73;;;14.63;;
9547;SDS011;4812;51.992;8.648;2022-08-24T04:47:49;15.40;;;14.20;;
9547;SDS011;4812;51.992;8.648;2022-08-24T04:50:17;15.70;;;14.60;;
9547;SDS011;4812;51.992;8.648;2022-08-24T04:52:49;16.07;;;14.77;;
9547;SDS011;4812;51.992;8.648;2022-08-24T04:55:17;14.93;;;13.83;;
9547;SDS011;4812;51.992;8.648;2022-08-24T04:57:45;14.60;;;13.40;;
9547;SDS011;4812;51.992;8.648;2022-08-24T05:00:12;14.40;;;13.40;;
9547;SDS011;4812;51.992;8.648;2022-08-24T05:02:43;15.60;;;14.10;;
9547;SDS011;4812;51.992;8.648;2022-08-24T05:05:12;14.37;;;13.27;;
9547;SDS011;4812;51.992;8.648;2022-08-24T05:07:40;14.97;;;13.73;;
9547;SDS011;4812;51.992;8.648;2022-08-24T05:10:08;14.57;;;13.20;;
9547;SDS011;4812;51.992;8.648;2022-08-24T05:12:36;14.70;;;13.60;;
9547;SDS011;4812;51.992;8.648;2022-08-24T05:15:08;14.60;;;13.60;;
9547;SDS011;4812;51.992;8.648;2022-08-24T05:17:39;14.90;;;13.73;;
9547;SDS011;4812;51.992;8.648;2022-08-24T05:20:17;14.80;;;13.60;;
9547;SDS011;4812;51.992;8.648;2022-08-24T05:22:45;14.83;;;13.73;;
9547;SDS011;4812;51.992;8.648;2022-08-24T05:25:13;15.00;;;13.70;;
9547;SDS011;4812;51.992;8.648;2022-08-24T05:27:41;15.03;;;13.93;;
9547;SDS011;4812;51.992;8.648;2022-08-24T05:30:09;15.00;;;13.90;;
9547;SDS011;4812;51.992;8.648;2022-08-24T05:32:38;14.60;;;13.60;;
9547;SDS011;4812;51.992;8.648;2022-08-24T05:35:06;14.83;;;13.53;;
9547;SDS011;4812;51.992;8.648;2022-08-24T05:37:36;14.50;;;13.60;;
9547;SDS011;4812;51.992;8.648;2022-08-24T05:40:13;14.40;;;13.30;;
9547;SDS011;4812;51.992;8.648;2022-08-24T05:42:46;15.33;;;14.23;;
9547;SDS011;4812;51.992;8.648;2022-08-24T05:45:14;15.60;;;14.30;;
9547;SDS011;4812;51.992;8.648;2022-08-24T05:47:42;15.40;;;14.20;;
9547;SDS011;4812;51.992;8.648;2022-08-24T05:50:36;15.33;;;14.13;;
9547;SDS011;4812;51.992;8.648;2022-08-24T05:53:06;14.47;;;13.53;;
9547;SDS011;4812;51.992;8.648;2022-08-24T05:55:36;15.20;;;14.20;;
9547;SDS011;4812;51.992;8.648;2022-08-24T05:58:04;15.53;;;14.43;;
9547;SDS011;4812;51.992;8.648;2022-08-24T06:00:32;16.27;;;15.10;;
9547;SDS011;4812;51.992;8.648;2022-08-24T06:03:00;15.70;;;14.33;;
9547;SDS011;4812;51.992;8.648;2022-08-24T06:05:31;15.50;;;14.37;;
9547;SDS011;4812;51.992;8.648;2022-08-24T06:07:58;18.67;;;14.40;;
9547;SDS011;4812;51.992;8.648;2022-08-24T06:10:27;15.90;;;14.90;;
9547;SDS011;4812;51.992;8.648;2022-08-24T06:13:03;15.93;;;14.83;;
9547;SDS011;4812;51.992;8.648;2022-08-24T06:15:31;15.93;;;14.73;;
9547;SDS011;4812;51.992;8.648;2022-08-24T06:18:00;16.27;;;15.27;;
9547;SDS011;4812;51.992;8.648;2022-08-24T06:20:28;16.33;;;15.23;;
9547;SDS011;4812;51.992;8.648;2022-08-24T06:22:56;16.13;;;15.03;;
9547;SDS011;4812;51.992;8.648;2022-08-24T06:25:32;16.20;;;15.20;;
9547;SDS011;4812;51.992;8.648;2022-08-24T06:28:17;16.60;;;15.30;;
9547;SDS011;4812;51.992;8.648;2022-08-24T06:30:46;16.67;;;15.37;;
9547;SDS011;4812;51.992;8.648;2022-08-24T06:33:16;16.60;;;15.30;;
9547;SDS011;4812;51.992;8.648;2022-08-24T06:35:47;16.37;;;15.30;;
9547;SDS011;4812;51.992;8.648;2022-08-24T06:38:14;16.40;;;15.20;;
9547;SDS011;4812;51.992;8.648;2022-08-24T06:40:46;16.17;;;15.17;;
9547;SDS011;4812;51.992;8.648;2022-08-24T06:43:13;16.57;;;15.47;;
9547;SDS011;4812;51.992;8.648;2022-08-24T06:45:48;17.53;;;16.10;;
9547;SDS011;4812;51.992;8.648;2022-08-24T06:48:19;16.83;;;15.63;;
9547;SDS011;4812;51.992;8.648;2022-08-24T06:50:48;17.90;;;16.40;;
9547;SDS011;4812;51.992;8.648;2022-08-24T06:53:16;17.60;;;16.40;;
9547;SDS011;4812;51.992;8.648;2022-08-24T06:55:49;17.60;;;16.40;;
9547;SDS011;4812;51.992;8.648;2022-08-24T06:58:17;16.90;;;15.70;;
9547;SDS011;4812;51.992;8.648;2022-08-24T07:00:46;16.87;;;15.70;;
9547;SDS011;4812;51.992;8.648;2022-08-24T07:03:16;16.63;;;15.63;;
9547;SDS011;4812;51.992;8.648;2022-08-24T07:05:56;17.50;;;16.03;;
9547;SDS011;4812;51.992;8.648;2022-08-24T07:08:51;16.77;;;15.47;;
9547;SDS011;4812;51.992;8.648;2022-08-24T07:11:20;16.40;;;15.30;;
9547;SDS011;4812;51.992;8.648;2022-08-24T07:13:48;16.20;;;15.10;;
9547;SDS011;4812;51.992;8.648;2022-08-24T07:16:17;16.70;;;15.30;;
9547;SDS011;4812;51.992;8.648;2022-08-24T07:18:50;17.00;;;15.75;;
9547;SDS011;4812;51.992;8.648;2022-08-24T07:21:19;17.65;;;16.15;;
9547;SDS011;4812;51.992;8.648;2022-08-24T07:23:52;16.92;;;15.82;;
9547;SDS011;4812;51.992;8.648;2022-08-24T07:26:22;16.20;;;15.20;;
9547;SDS011;4812;51.992;8.648;2022-08-24T07:28:53;16.60;;;15.50;;
9547;SDS011;4812;51.992;8.648;2022-08-24T07:31:26;17.25;;;16.13;;
9547;SDS011;4812;51.992;8.648;2022-08-24T07:34:07;16.85;;;15.77;;
9547;SDS011;4812;51.992;8.648;2022-08-24T07:36:37;16.60;;;15.57;;
9547;SDS011;4812;51.992;8.648;2022-08-24T07:39:10;16.23;;;15.13;;
9547;SDS011;4812;51.992;8.648;2022-08-24T07:41:41;16.02;;;14.98;;
9547;SDS011;4812;51.992;8.648;2022-08-24T07:44:29;16.30;;;15.30;;
9547;SDS011;4812;51.992;8.648;2022-08-24T07:46:57;16.90;;;15.70;;
9547;SDS011;4812;51.992;8.648;2022-08-24T07:49:45;16.25;;;15.10;;
9547;SDS011;4812;51.992;8.648;2022-08-24T07:52:13;16.58;;;15.48;;
9547;SDS011;4812;51.992;8.648;2022-08-24T07:54:42;16.50;;;15.50;;
9547;SDS011;4812;51.992;8.648;2022-08-24T07:57:11;16.55;;;15.63;;
9547;SDS011;4812;51.992;8.648;2022-08-24T07:59:39;16.65;;;15.50;;
9547;SDS011;4812;51.992;8.648;2022-08-24T08:02:07;16.60;;;15.60;;
9547;SDS011;4812;51.992;8.648;2022-08-24T08:04:36;16.70;;;15.50;;
9547;SDS011;4812;51.992;8.648;2022-08-24T08:07:05;16.38;;;15.30;;
9547;SDS011;4812;51.992;8.648;2022-08-24T08:09:35;15.93;;;14.82;;
9547;SDS011;4812;51.992;8.648;2022-08-24T08:12:03;16.27;;;15.23;;
9547;SDS011;4812;51.992;8.648;2022-08-24T08:14:33;16.02;;;14.88;;
9547;SDS011;4812;51.992;8.648;2022-08-24T08:17:00;15.93;;;14.77;;
9547;SDS011;4812;51.992;8.648;2022-08-24T08:19:29;16.60;;;15.13;;
9547;SDS011;4812;51.992;8.648;2022-08-24T08:21:57;16.20;;;15.23;;
9547;SDS011;4812;51.992;8.648;2022-08-24T08:25:02;15.57;;;14.68;;
9547;SDS011;4812;51.992;8.648;2022-08-24T08:27:32;15.63;;;14.73;;
9547;SDS011;4812;51.992;8.648;2022-08-24T08:30:02;16.08;;;15.02;;
9547;SDS011;4812;51.992;8.648;2022-08-24T08:32:32;16.17;;;15.07;;
9547;SDS011;4812;51.992;8.648;2022-08-24T08:34:59;15.93;;;14.93;;
9547;SDS011;4812;51.992;8.648;2022-08-24T08:37:30;15.95;;;14.85;;
9547;SDS011;4812;51.992;8.648;2022-08-24T08:39:58;15.77;;;14.75;;
9547;SDS011;4812;51.992;8.648;2022-08-24T08:42:30;16.45;;;15.35;;
9547;SDS011;4812;51.992;8.648;2022-08-24T08:45:09;15.32;;;14.38;;
9547;SDS011;4812;51.992;8.648;2022-08-24T08:53:46;15.73;;;14.82;;
9547;SDS011;4812;51.992;8.648;2022-08-24T08:56:32;15.63;;;14.63;;
9547;SDS011;4812;51.992;8.648;2022-08-24T08:59:05;15.82;;;14.82;;
9547;SDS011;4812;51.992;8.648;2022-08-24T09:01:45;16.17;;;15.00;;
9547;SDS011;4812;51.992;8.648;2022-08-24T09:04:45;15.77;;;14.68;;
9547;SDS011;4812;51.992;8.648;2022-08-24T09:07:20;15.95;;;14.85;;
9547;SDS011;4812;51.992;8.648;2022-08-24T09:13:04;15.60;;;14.60;;
9547;SDS011;4812;51.992;8.648;2022-08-24T09:15:46;15.82;;;14.82;;
9547;SDS011;4812;51.992;8.648;2022-08-24T09:18:29;15.98;;;14.95;;
9547;SDS011;4812;51.992;8.648;2022-08-24T09:21:09;16.17;;;15.07;;
9547;SDS011;4812;51.992;8.648;2022-08-24T09:23:45;15.90;;;14.90;;
9547;SDS011;4812;51.992;8.648;2022-08-24T09:26:19;17.65;;;16.40;;
9547;SDS011;4812;51.992;8.648;2022-08-24T09:28:52;16.52;;;15.25;;
9547;SDS011;4812;51.992;8.648;2022-08-24T09:31:35;15.55;;;14.65;;
9547;SDS011;4812;51.992;8.648;2022-08-24T09:34:14;15.95;;;14.75;;
9547;SDS011;4812;51.992;8.648;2022-08-24T09:36:51;16.05;;;14.98;;
9547;SDS011;4812;51.992;8.648;2022-08-24T09:42:16;16.00;;;14.88;;
9547;SDS011;4812;51.992;8.648;2022-08-24T09:45:04;15.52;;;14.52;;
9547;SDS011;4812;51.992;8.648;2022-08-24T09:51:08;16.02;;;14.93;;
9547;SDS011;4812;51.992;8.648;2022-08-24T09:57:16;16.10;;;15.00;;
9547;SDS011;4812;51.992;8.648;2022-08-24T10:00:15;16.38;;;14.88;;
9547;SDS011;4812;51.992;8.648;2022-08-24T10:02:48;15.90;;;14.90;;
9547;SDS011;4812;51.992;8.648;2022-08-24T10:05:24;15.50;;;14.60;;
9547;SDS011;4812;51.992;8.648;2022-08-24T10:08:08;15.43;;;14.52;;
9547;SDS011;4812;51.992;8.648;2022-08-24T10:10:45;16.25;;;15.02;;
9547;SDS011;4812;51.992;8.648;2022-08-24T10:13:22;16.55;;;15.30;;
9547;SDS011;4812;51.992;8.648;2022-08-24T10:15:57;16.17;;;15.05;;
9547;SDS011;4812;51.992;8.648;2022-08-24T10:18:39;16.27;;;15.18;;
9547;SDS011;4812;51.992;8.648;2022-08-24T10:21:19;16.02;;;14.85;;
9547;SDS011;4812;51.992;8.648;2022-08-24T10:24:06;15.98;;;14.98;;
9547;SDS011;4812;51.992;8.648;2022-08-24T10:26:48;16.25;;;15.35;;
9547;SDS011;4812;51.992;8.648;2022-08-24T10:29:31;15.55;;;14.60;;
9547;SDS011;4812;51.992;8.648;2022-08-24T10:32:14;15.45;;;14.52;;
9547;SDS011;4812;51.992;8.648;2022-08-24T10:34:50;16.48;;;15.18;;
9547;SDS011;4812;51.992;8.648;2022-08-24T10:37:31;15.73;;;14.77;;
9547;SDS011;4812;51.992;8.648;2022-08-24T10:40:24;15.63;;;14.63;;
9547;SDS011;4812;51.992;8.648;2022-08-24T10:43:13;15.38;;;14.30;;
9547;SDS011;4812;51.992;8.648;2022-08-24T10:46:11;15.55;;;14.30;;
9547;SDS011;4812;51.992;8.648;2022-08-24T10:51:59;14.80;;;13.95;;
9547;SDS011;4812;51.992;8.648;2022-08-24T10:54:44;15.32;;;14.10;;
9547;SDS011;4812;51.992;8.648;2022-08-24T10:57:17;15.57;;;14.40;;
9547;SDS011;4812;51.992;8.648;2022-08-24T10:59:49;15.23;;;14.32;;
9547;SDS011;4812;51.992;8.648;2022-08-24T11:02:28;15.80;;;14.60;;
9547;SDS011;4812;51.992;8.648;2022-08-24T11:04:57;15.05;;;14.18;;
9547;SDS011;4812;51.992;8.648;2022-08-24T11:07:31;15.25;;;14.30;;
9547;SDS011;4812;51.992;8.648;2022-08-24T11:10:01;16.02;;;14.82;;
9547;SDS011;4812;51.992;8.648;2022-08-24T11:12:37;15.35;;;14.38;;
9547;SDS011;4812;51.992;8.648;2022-08-24T11:15:09;15.60;;;14.50;;
9547;SDS011;4812;51.992;8.648;2022-08-24T11:17:52;15.60;;;14.60;;
9547;SDS011;4812;51.992;8.648;2022-08-24T11:20:24;15.98;;;14.95;;
9547;SDS011;4812;51.992;8.648;2022-08-24T11:22:58;15.43;;;14.52;;
9547;SDS011;4812;51.992;8.648;2022-08-24T11:25:28;15.30;;;14.40;;
9547;SDS011;4812;51.992;8.648;2022-08-24T11:28:02;15.32;;;14.20;;
9547;SDS011;4812;51.992;8.648;2022-08-24T11:30:32;15.95;;;14.95;;
9547;SDS011;4812;51.992;8.648;2022-08-24T11:33:22;15.02;;;14.13;;
9547;SDS011;4812;51.992;8.648;2022-08-24T11:35:52;16.60;;;15.30;;
9547;SDS011;4812;51.992;8.648;2022-08-24T11:38:22;16.50;;;14.98;;
9547;SDS011;4812;51.992;8.648;2022-08-24T11:40:54;15.70;;;14.80;;
9547;SDS011;4812;51.992;8.648;2022-08-24T11:43:29;15.88;;;14.77;;
9547;SDS011;4812;51.992;8.648;2022-08-24T11:46:08;16.23;;;15.23;;
9547;SDS011;4812;51.992;8.648;2022-08-24T11:48:49;15.38;;;14.38;;
9547;SDS011;4812;51.992;8.648;2022-08-24T11:51:26;16.20;;;15.10;;
9547;SDS011;4812;51.992;8.648;2022-08-24T11:54:02;16.45;;;15.35;;
9547;SDS011;4812;51.992;8.648;2022-08-24T11:56:33;15.93;;;14.90;;
9547;SDS011;4812;51.992;8.648;2022-08-24T11:59:11;15.85;;;14.82;;
9547;SDS011;4812;51.992;8.648;2022-08-24T12:01:44;15.32;;;14.43;;
9547;SDS011;4812;51.992;8.648;2022-08-24T12:04:24;16.00;;;14.90;;
9547;SDS011;4812;51.992;8.648;2022-08-24T12:07:02;15.80;;;14.50;;
9547;SDS011;4812;51.992;8.648;2022-08-24T12:09:43;15.65;;;14.50;;
9547;SDS011;4812;51.992;8.648;2022-08-24T12:12:19;15.73;;;14.82;;
9547;SDS011;4812;51.992;8.648;2022-08-24T12:14:53;18.73;;;14.63;;
9547;SDS011;4812;51.992;8.648;2022-08-24T12:17:27;15.70;;;14.80;;
9547;SDS011;4812;51.992;8.648;2022-08-24T12:19:59;15.40;;;14.50;;
9547;SDS011;4812;51.992;8.648;2022-08-24T12:22:30;15.60;;;14.60;;
9547;SDS011;4812;51.992;8.648;2022-08-24T12:24:59;15.68;;;14.73;;
9547;SDS011;4812;51.992;8.648;2022-08-24T12:27:52;15.43;;;14.52;;
9547;SDS011;4812;51.992;8.648;2022-08-24T12:30:22;15.85;;;14.95;;
9547;SDS011;4812;51.992;8.648;2022-08-24T12:32:52;15.73;;;14.82;;
9547;SDS011;4812;51.992;8.648;2022-08-24T12:35:25;15.77;;;14.88;;
9547;SDS011;4812;51.992;8.648;2022-08-24T12:37:56;15.95;;;14.90;;
9547;SDS011;4812;51.992;8.648;2022-08-24T12:40:28;15.95;;;14.73;;
9547;SDS011;4812;51.992;8.648;2022-08-24T12:43:06;15.30;;;14.30;;
9547;SDS011;4812;51.992;8.648;2022-08-24T12:45:43;14.68;;;13.88;;
9547;SDS011;4812;51.992;8.648;2022-08-24T12:48:13;14.52;;;13.73;;
9547;SDS011;4812;51.992;8.648;2022-08-24T12:50:49;15.75;;;14.75;;
9547;SDS011;4812;51.992;8.648;2022-08-24T12:53:44;15.80;;;14.60;;
9547;SDS011;4812;51.992;8.648;2022-08-24T12:59:12;15.15;;;14.20;;
9547;SDS011;4812;51.992;8.648;2022-08-24T13:01:57;16.13;;;14.75;;
9547;SDS011;4812;51.992;8.648;2022-08-24T13:04:35;15.60;;;14.63;;
9547;SDS011;4812;51.992;8.648;2022-08-24T13:07:08;15.80;;;14.90;;
9547;SDS011;4812;51.992;8.648;2022-08-24T13:09:40;15.70;;;14.80;;
9547;SDS011;4812;51.992;8.648;2022-08-24T13:21:38;15.25;;;14.13;;
9547;SDS011;4812;51.992;8.648;2022-08-24T13:33:36;15.82;;;14.82;;
9547;SDS011;4812;51.992;8.648;2022-08-24T13:39:22;15.82;;;14.75;;
9547;SDS011;4812;51.992;8.648;2022-08-24T13:42:13;15.35;;;14.27;;
9547;SDS011;4812;51.992;8.648;2022-08-24T13:44:58;16.58;;;15.00;;
9547;SDS011;4812;51.992;8.648;2022-08-24T13:47:45;15.80;;;14.73;;
9547;SDS011;4812;51.992;8.648;2022-08-24T13:50:31;15.30;;;14.40;;
9547;SDS011;4812;51.992;8.648;2022-08-24T13:53:15;15.88;;;14.70;;
9547;SDS011;4812;51.992;8.648;2022-08-24T13:56:16;15.85;;;14.80;;
9547;SDS011;4812;51.992;8.648;2022-08-24T13:59:02;15.65;;;14.65;;
9547;SDS011;4812;51.992;8.648;2022-08-24T14:01:37;15.70;;;14.70;;
9547;SDS011;4812;51.992;8.648;2022-08-24T14:04:28;15.07;;;14.07;;
9547;SDS011;4812;51.992;8.648;2022-08-24T14:07:05;15.13;;;14.10;;
9547;SDS011;4812;51.992;8.648;2022-08-24T14:09:40;15.18;;;14.30;;
9547;SDS011;4812;51.992;8.648;2022-08-24T14:12:20;15.63;;;14.40;;
9547;SDS011;4812;51.992;8.648;2022-08-24T14:15:09;15.20;;;14.13;;
9547;SDS011;4812;51.992;8.648;2022-08-24T14:17:46;15.23;;;14.02;;
9547;SDS011;4812;51.992;8.648;2022-08-24T14:23:36;14.95;;;13.95;;
9547;SDS011;4812;51.992;8.648;2022-08-24T14:29:40;14.32;;;13.43;;
9547;SDS011;4812;51.992;8.648;2022-08-24T14:35:27;14.63;;;13.73;;
9547;SDS011;4812;51.992;8.648;2022-08-24T14:38:08;15.50;;;14.40;;
9547;SDS011;4812;51.992;8.648;2022-08-24T14:40:43;15.30;;;14.40;;
9547;SDS011;4812;51.992;8.648;2022-08-24T14:43:22;15.20;;;14.25;;
9547;SDS011;4812;51.992;8.648;2022-08-24T14:46:00;15.38;;;14.13;;
9547;SDS011;4812;51.992;8.648;2022-08-24T14:48:36;15.45;;;14.50;;
9547;SDS011;4812;51.992;8.648;2022-08-24T14:51:09;14.82;;;13.93;;
9547;SDS011;4812;51.992;8.648;2022-08-24T14:53:48;15.07;;;14.18;;
9547;SDS011;4812;51.992;8.648;2022-08-24T14:56:30;15.13;;;14.23;;
9547;SDS011;4812;51.992;8.648;2022-08-24T14:59:39;15.32;;;14.10;;
9547;SDS011;4812;51.992;8.648;2022-08-24T15:02:26;15.23;;;14.20;;
9547;SDS011;4812;51.992;8.648;2022-08-24T15:05:12;14.82;;;13.98;;
9547;SDS011;4812;51.992;8.648;2022-08-24T15:07:57;15.40;;;14.30;;
9547;SDS011;4812;51.992;8.648;2022-08-24T15:10:31;14.60;;;13.80;;
9547;SDS011;4812;51.992;8.648;2022-08-24T15:13:20;14.98;;;14.07;;
9547;SDS011;4812;51.992;8.648;2022-08-24T15:16:02;15.10;;;14.15;;
9547;SDS011;4812;51.992;8.648;2022-08-24T15:18:43;15.15;;;14.10;;
9547;SDS011;4812;51.992;8.648;2022-08-24T15:21:24;14.85;;;13.95;;
9547;SDS011;4812;51.992;8.648;2022-08-24T15:24:00;14.90;;;13.95;;
9547;SDS011;4812;51.992;8.648;2022-08-24T15:26:40;14.70;;;13.68;;
9547;SDS011;4812;51.992;8.648;2022-08-24T15:29:20;14.95;;;13.82;;
9547;SDS011;4812;51.992;8.648;2022-08-24T15:31:56;14.95;;;14.07;;
9547;SDS011;4812;51.992;8.648;2022-08-24T15:37:25;14.70;;;13.80;;
9547;SDS011;4812;51.992;8.648;2022-08-24T15:39:57;15.30;;;14.18;;
9547;SDS011;4812;51.992;8.648;2022-08-24T15:42:30;14.80;;;14.00;;
9547;SDS011;4812;51.992;8.648;2022-08-24T15:45:00;15.13;;;14.07;;
9547;SDS011;4812;51.992;8.648;2022-08-24T15:47:31;14.90;;;13.90;;
9547;SDS011;4812;51.992;8.648;2022-08-24T15:50:06;14.65;;;13.60;;
9547;SDS011;4812;51.992;8.648;2022-08-24T15:52:42;14.70;;;13.60;;
9547;SDS011;4812;51.992;8.648;2022-08-24T15:58:13;14.88;;;13.90;;
9547;SDS011;4812;51.992;8.648;2022-08-24T16:00:50;15.00;;;13.90;;
9547;SDS011;4812;51.992;8.648;2022-08-24T16:03:56;15.48;;;14.40;;
9547;SDS011;4812;51.992;8.648;2022-08-24T16:06:41;15.00;;;14.13;;
9547;SDS011;4812;51.992;8.648;2022-08-24T16:09:30;14.93;;;14.02;;
9547;SDS011;4812;51.992;8.648;2022-08-24T16:12:08;15.25;;;14.35;;
9547;SDS011;4812;51.992;8.648;2022-08-24T16:14:49;15.40;;;14.27;;
9547;SDS011;4812;51.992;8.648;2022-08-24T16:17:24;15.75;;;14.70;;
9547;SDS011;4812;51.992;8.648;2022-08-24T16:19:57;15.50;;;14.50;;
9547;SDS011;4812;51.992;8.648;2022-08-24T16:22:32;15.90;;;14.90;;
9547;SDS011;4812;51.992;8.648;2022-08-24T16:25:15;16.13;;;14.93;;
9547;SDS011;4812;51.992;8.648;2022-08-24T16:30:37;16.05;;;14.93;;
9547;SDS011;4812;51.992;8.648;2022-08-24T16:33:33;15.88;;;14.98;;
9547;SDS011;4812;51.992;8.648;2022-08-24T16:36:11;17.02;;;15.60;;